createdAt,value
2022-08-09T00:00:00.183Z,14.72
2022-08-09T00:00:57.892Z,14.74
2022-08-09T00:02:02.215Z,14.75
2022-08-09T00:04:00.636Z,14.71
2022-08-09T00:04:35.165Z,14.66
2022-08-09T00:06:18.780Z,14.68
2022-08-09T00:06:22.869Z,14.70
2022-08-09T00:07:24.096Z,14.69
2022-08-09T00:08:32.655Z,14.69
2022-08-09T00:09:32.822Z,14.75
2022-08-09T00:10:37.158Z,14.79
2022-08-09T00:12:04.513Z,14.80
2022-08-09T00:12:45.977Z,14.83
2022-08-09T00:13:50.321Z,14.85
2022-08-09T00:14:56.933Z,14.87
2022-08-09T00:16:02.693Z,14.84
2022-08-09T00:17:03.418Z,14.84
2022-08-09T00:18:11.433Z,14.81
2022-08-09T00:19:12.148Z,14.78
2022-08-09T00:20:16.516Z,14.78
2022-08-09T00:21:20.901Z,14.80
2022-08-09T00:22:25.259Z,14.83
2022-08-09T00:23:56.009Z,14.79
2022-08-09T00:24:34.025Z,14.79
2022-08-09T00:25:38.386Z,14.82
2022-08-09T00:26:42.771Z,14.86
2022-08-09T00:27:47.964Z,14.84
2022-08-09T00:28:51.490Z,14.86
2022-08-09T00:30:23.723Z,14.83
2022-08-09T00:31:00.215Z,14.80
2022-08-09T00:32:04.573Z,14.82
2022-08-09T00:33:08.917Z,14.82
2022-08-09T00:34:13.312Z,14.80
2022-08-09T00:35:17.674Z,14.80
2022-08-09T00:36:22.044Z,14.78
2022-08-09T00:37:26.406Z,14.76
2022-08-09T00:38:30.775Z,14.76
2022-08-09T00:40:13.663Z,14.77
2022-08-09T00:40:39.610Z,14.78
2022-08-09T00:44:10.835Z,14.76
2022-08-09T00:44:11.019Z,14.77
2022-08-09T00:44:14.504Z,14.77
2022-08-09T00:44:57.064Z,14.77
2022-08-09T00:46:01.468Z,14.74
2022-08-09T00:47:06.005Z,14.72
2022-08-09T00:48:10.166Z,14.74
2022-08-09T00:49:14.515Z,14.74
2022-08-09T00:50:18.902Z,14.73
2022-08-09T00:51:23.308Z,14.77
2022-08-09T00:52:30.675Z,14.73
2022-08-09T00:53:32.094Z,14.71
2022-08-09T00:54:36.665Z,14.65
2022-08-09T00:56:04.059Z,14.66
2022-08-09T00:56:45.229Z,14.68
2022-08-09T00:57:49.818Z,14.69
2022-08-09T00:58:53.906Z,14.69
2022-08-09T00:59:58.336Z,14.71
2022-08-09T01:01:03.360Z,14.70
2022-08-09T01:02:07.187Z,14.67
2022-08-09T01:03:11.490Z,14.61
2022-08-09T01:04:15.918Z,14.57
2022-08-09T01:05:22.045Z,14.51
2022-08-09T01:06:25.500Z,14.44
2022-08-09T01:07:38.113Z,14.41
2022-08-09T01:08:33.297Z,14.40
2022-08-09T01:09:37.672Z,14.42
2022-08-09T01:10:42.078Z,14.41
2022-08-09T01:11:53.330Z,14.40
2022-08-09T01:12:50.883Z,14.39
2022-08-09T01:13:59.067Z,14.35
2022-08-09T01:14:59.430Z,14.32
2022-08-09T01:16:03.781Z,14.32
2022-08-09T01:17:08.865Z,14.31
2022-08-09T01:18:14.321Z,14.31
2022-08-09T01:19:39.742Z,14.31
2022-08-09T01:20:21.208Z,14.30
2022-08-09T01:21:25.566Z,14.27
2022-08-09T01:22:30.308Z,14.25
2022-08-09T01:24:03.677Z,14.22
2022-08-09T01:24:39.017Z,14.18
2022-08-09T01:25:49.039Z,14.20
2022-08-09T01:26:53.083Z,14.20
2022-08-09T01:27:51.719Z,14.22
2022-08-09T01:28:56.189Z,14.27
2022-08-09T01:30:00.799Z,14.30
2022-08-09T01:31:06.125Z,14.34
2022-08-09T01:32:30.181Z,14.35
2022-08-09T01:33:13.617Z,14.36
2022-08-09T01:34:18.016Z,14.36
2022-08-09T01:35:38.028Z,14.36
2022-08-09T01:36:26.646Z,14.38
2022-08-09T01:38:05.924Z,14.36
2022-08-09T01:38:35.368Z,14.34
2022-08-09T01:39:39.783Z,14.30
2022-08-09T01:40:44.163Z,14.28
2022-08-09T01:41:57.240Z,14.27
2022-08-09T01:42:52.739Z,14.26
2022-08-09T01:43:57.126Z,14.27
2022-08-09T01:45:01.477Z,14.31
2022-08-09T01:46:05.821Z,14.33
2022-08-09T01:47:11.555Z,14.33
2022-08-09T01:48:15.589Z,14.34
2022-08-09T01:49:18.900Z,14.32
2022-08-09T01:50:29.015Z,14.28
2022-08-09T01:51:27.586Z,14.24
2022-08-09T01:52:32.143Z,14.20
2022-08-09T01:53:41.525Z,14.18
2022-08-09T01:54:40.658Z,14.17
2022-08-09T01:55:45.056Z,14.17
2022-08-09T01:56:51.654Z,14.20
2022-08-09T01:57:53.764Z,14.23
2022-08-09T01:58:58.087Z,14.27
2022-08-09T02:00:19.265Z,14.30
2022-08-09T02:01:06.891Z,14.33
2022-08-09T02:02:11.271Z,14.36
2022-08-09T02:03:15.558Z,14.36
2022-08-09T02:04:19.907Z,14.31
2022-08-09T02:05:38.186Z,14.27
2022-08-09T02:06:28.624Z,14.24
2022-08-09T02:08:40.326Z,14.24
2022-08-09T02:08:57.602Z,14.24
2022-08-09T02:09:42.888Z,14.23
2022-08-09T02:10:51.294Z,14.22
2022-08-09T02:11:50.490Z,14.19
2022-08-09T02:12:54.918Z,14.13
2022-08-09T02:14:07.234Z,14.09
2022-08-09T02:15:06.137Z,14.03
2022-08-09T02:16:07.890Z,13.96
2022-08-09T02:17:29.465Z,13.89
2022-08-09T02:18:16.609Z,13.83
2022-08-09T02:19:20.889Z,13.79
2022-08-09T02:20:32.942Z,13.81
2022-08-09T02:21:29.557Z,13.81
2022-08-09T02:22:36.033Z,13.76
2022-08-09T02:23:40.128Z,13.72
2022-08-09T02:24:42.555Z,13.67
2022-08-09T02:25:49.592Z,13.65
2022-08-09T02:26:51.259Z,13.64
2022-08-09T02:28:00.107Z,13.65
2022-08-09T02:29:00.177Z,13.66
2022-08-09T02:30:04.286Z,13.69
2022-08-09T02:31:08.754Z,13.72
2022-08-09T02:32:13.046Z,13.75
2022-08-09T02:33:17.475Z,13.80
2022-08-09T02:34:25.689Z,13.84
2022-08-09T02:36:02.072Z,13.89
2022-08-09T02:36:30.486Z,13.93
2022-08-09T02:37:36.808Z,13.98
2022-08-09T02:38:39.146Z,14.02
2022-08-09T02:39:45.218Z,14.06
2022-08-09T02:40:47.916Z,14.09
2022-08-09T02:41:52.233Z,14.12
2022-08-09T02:42:56.719Z,14.16
2022-08-09T02:44:01.018Z,14.19
2022-08-09T02:45:06.665Z,14.18
2022-08-09T02:46:09.731Z,14.15
2022-08-09T02:47:14.062Z,14.11
2022-08-09T02:48:30.615Z,14.08
2022-08-09T02:49:38.356Z,14.03
2022-08-09T02:50:30.106Z,14.00
2022-08-09T02:51:40.299Z,14.01
2022-08-09T02:52:37.943Z,14.01
2022-08-09T02:53:43.167Z,14.01
2022-08-09T02:54:54.615Z,14.01
2022-08-09T02:55:58.288Z,14.02
2022-08-09T02:56:56.902Z,14.02
2022-08-09T02:58:32.658Z,14.06
2022-08-09T02:59:04.122Z,14.14
2022-08-09T03:00:21.057Z,14.12
2022-08-09T03:01:21.633Z,14.09
2022-08-09T03:02:17.314Z,14.07
2022-08-09T03:04:12.842Z,14.07
2022-08-09T03:04:26.433Z,14.08
2022-08-09T03:05:34.196Z,14.08
2022-08-09T03:06:34.652Z,14.09
2022-08-09T03:07:39.029Z,14.05
2022-08-09T03:08:43.342Z,14.04
2022-08-09T03:09:56.334Z,14.04
2022-08-09T03:10:52.016Z,14.06
2022-08-09T03:12:06.252Z,14.06
2022-08-09T03:13:00.705Z,14.06
2022-08-09T03:14:05.083Z,14.09
2022-08-09T03:15:09.417Z,14.06
2022-08-09T03:16:13.794Z,14.06
2022-08-09T03:17:20.410Z,14.09
2022-08-09T03:18:30.467Z,14.02
2022-08-09T03:19:57.651Z,13.94
2022-08-09T03:20:31.105Z,13.83
2022-08-09T03:21:36.594Z,13.73
2022-08-09T03:22:42.113Z,13.65
2022-08-09T03:23:44.178Z,13.63
2022-08-09T03:24:52.739Z,13.62
2022-08-09T03:26:02.267Z,13.64
2022-08-09T03:26:57.195Z,13.68
2022-08-09T03:28:01.512Z,13.70
2022-08-09T03:29:09.724Z,13.71
2022-08-09T03:30:10.135Z,13.73
2022-08-09T03:31:22.674Z,13.75
2022-08-09T03:32:18.820Z,13.77
2022-08-09T03:33:23.256Z,13.80
2022-08-09T03:34:27.617Z,13.86
2022-08-09T03:36:13.804Z,13.90
2022-08-09T03:36:36.304Z,13.91
2022-08-09T03:37:55.472Z,13.92
2022-08-09T03:38:44.978Z,13.92
2022-08-09T03:39:55.725Z,13.92
2022-08-09T03:40:53.667Z,13.90
2022-08-09T03:42:06.031Z,13.89
2022-08-09T03:43:02.347Z,13.89
2022-08-09T03:44:08.746Z,13.90
2022-08-09T03:45:11.055Z,13.90
2022-08-09T03:46:19.961Z,13.87
2022-08-09T03:47:19.755Z,13.78
2022-08-09T03:48:30.572Z,13.73
2022-08-09T03:49:32.779Z,13.72
2022-08-09T03:50:32.794Z,13.70
2022-08-09T03:51:56.287Z,13.68
2022-08-09T03:52:41.801Z,13.69
2022-08-09T03:53:45.838Z,13.71
2022-08-09T03:54:50.948Z,13.72
2022-08-09T03:55:54.548Z,13.72
2022-08-09T03:56:58.869Z,13.74
2022-08-09T03:58:14.829Z,13.75
2022-08-09T03:59:07.533Z,13.75
2022-08-09T04:00:11.956Z,13.76
2022-08-09T04:01:16.338Z,13.76
2022-08-09T04:02:26.840Z,13.76
2022-08-09T04:03:46.404Z,13.72
2022-08-09T04:04:36.144Z,13.68
2022-08-09T04:05:33.706Z,13.67
2022-08-09T04:06:38.041Z,13.68
2022-08-09T04:07:53.247Z,13.66
2022-08-09T04:08:46.859Z,13.63
2022-08-09T04:09:53.086Z,13.59
2022-08-09T04:10:55.489Z,13.58
2022-08-09T04:11:59.900Z,13.60
2022-08-09T04:13:04.717Z,13.61
2022-08-09T04:14:53.536Z,13.63
2022-08-09T04:15:17.231Z,13.66
2022-08-09T04:16:21.205Z,13.68
2022-08-09T04:17:21.590Z,13.69
2022-08-09T04:18:25.915Z,13.72
2022-08-09T04:19:50.904Z,13.73
2022-08-09T04:20:34.667Z,13.75
2022-08-09T04:21:40.216Z,13.76
2022-08-09T04:22:44.231Z,13.80
2022-08-09T04:23:53.843Z,13.83
2022-08-09T04:24:51.989Z,13.88
2022-08-09T04:25:56.361Z,13.94
2022-08-09T04:27:00.687Z,13.95
2022-08-09T04:28:05.007Z,13.94
2022-08-09T04:29:14.705Z,13.95
2022-08-09T04:30:13.735Z,13.99
2022-08-09T04:31:18.114Z,14.03
2022-08-09T04:32:31.239Z,14.05
2022-08-09T04:33:28.838Z,14.09
2022-08-09T04:34:32.004Z,14.13
2022-08-09T04:35:35.650Z,14.14
2022-08-09T04:36:44.929Z,14.12
2022-08-09T04:37:46.269Z,14.12
2022-08-09T04:38:48.670Z,14.18
2022-08-09T04:39:53.098Z,14.21
2022-08-09T04:40:57.442Z,14.23
2022-08-09T04:42:02.569Z,14.26
2022-08-09T04:43:06.199Z,14.28
2022-08-09T04:44:11.166Z,14.29
2022-08-09T04:45:14.888Z,14.31
2022-08-09T04:46:38.176Z,14.34
2022-08-09T04:47:23.578Z,14.38
2022-08-09T04:48:33.345Z,14.42
2022-08-09T04:49:53.577Z,14.46
2022-08-09T04:50:38.105Z,14.49
2022-08-09T04:51:40.936Z,14.52
2022-08-09T04:52:45.336Z,14.56
2022-08-09T04:53:54.156Z,14.60
2022-08-09T04:54:54.094Z,14.64
2022-08-09T04:55:59.597Z,14.67
2022-08-09T04:57:03.797Z,14.71
2022-08-09T04:58:09.716Z,14.74
2022-08-09T04:59:15.345Z,14.78
2022-08-09T05:00:16.604Z,14.79
2022-08-09T05:01:20.386Z,14.80
2022-08-09T05:02:27.266Z,14.79
2022-08-09T05:03:39.855Z,14.79
2022-08-09T05:04:33.638Z,14.79
2022-08-09T05:05:51.775Z,14.81
2022-08-09T05:06:44.094Z,14.82
2022-08-09T05:07:46.602Z,14.84
2022-08-09T05:08:50.935Z,14.86
2022-08-09T05:09:55.290Z,14.88
2022-08-09T05:11:01.139Z,14.90
2022-08-09T05:12:03.985Z,14.94
2022-08-09T05:13:08.336Z,14.99
2022-08-09T05:14:12.706Z,15.03
2022-08-09T05:15:38.589Z,15.08
2022-08-09T05:16:21.379Z,15.12
2022-08-09T05:18:38.084Z,15.15
2022-08-09T05:18:50.919Z,15.18
2022-08-09T05:19:44.907Z,15.23
2022-08-09T05:20:38.831Z,15.27
2022-08-09T05:21:47.014Z,15.34
2022-08-09T05:23:55.166Z,15.40
2022-08-09T05:23:57.969Z,15.47
2022-08-09T05:24:57.242Z,15.53
2022-08-09T05:26:00.679Z,15.60
2022-08-09T05:27:05.048Z,15.68
2022-08-09T05:28:09.460Z,15.75
2022-08-09T05:29:17.464Z,15.82
2022-08-09T05:30:19.474Z,15.88
2022-08-09T05:31:36.972Z,15.93
2022-08-09T05:32:30.107Z,15.99
2022-08-09T05:33:33.088Z,16.06
2022-08-09T05:34:35.799Z,16.13
2022-08-09T05:35:46.956Z,16.20
2022-08-09T05:36:47.093Z,16.26
2022-08-09T05:37:50.319Z,16.30
2022-08-09T05:38:53.208Z,16.35
2022-08-09T05:39:57.751Z,16.40
2022-08-09T05:41:02.124Z,16.44
2022-08-09T05:42:06.474Z,16.49
2022-08-09T05:43:10.851Z,16.54
2022-08-09T05:44:15.199Z,16.59
2022-08-09T05:45:19.651Z,16.63
2022-08-09T05:46:24.001Z,16.68
2022-08-09T05:47:30.293Z,16.74
2022-08-09T05:48:33.523Z,16.77
2022-08-09T05:50:34.849Z,16.81
2022-08-09T05:50:50.978Z,16.85
2022-08-09T05:51:46.720Z,16.89
2022-08-09T05:52:53.298Z,16.94
2022-08-09T05:53:57.447Z,16.98
2022-08-09T05:55:03.245Z,17.03
2022-08-09T05:56:03.630Z,17.10
2022-08-09T05:57:08.004Z,17.16
2022-08-09T05:58:18.462Z,17.22
2022-08-09T05:59:16.813Z,17.29
2022-08-09T06:00:21.169Z,17.35
2022-08-09T06:01:25.600Z,17.41
2022-08-09T06:02:30.271Z,17.46
2022-08-09T06:03:43.898Z,17.50
2022-08-09T06:04:44.745Z,17.57
2022-08-09T06:05:57.073Z,17.64
2022-08-09T06:06:50.127Z,17.71
2022-08-09T06:08:05.325Z,17.79
2022-08-09T06:08:56.358Z,17.91
2022-08-09T06:10:02.861Z,18.02
2022-08-09T06:11:17.486Z,18.13
2022-08-09T06:12:09.495Z,18.24
2022-08-09T06:13:20.337Z,18.30
2022-08-09T06:14:18.383Z,18.37
2022-08-09T06:15:22.780Z,18.45
2022-08-09T06:16:27.253Z,18.53
2022-08-09T06:17:39.979Z,18.62
2022-08-09T06:18:36.493Z,18.71
2022-08-09T06:19:40.577Z,18.80
2022-08-09T06:20:54.289Z,18.86
2022-08-09T06:21:51.484Z,18.89
2022-08-09T06:22:53.708Z,18.90
2022-08-09T06:24:01.593Z,18.89
2022-08-09T06:25:02.521Z,18.93
2022-08-09T06:26:07.010Z,18.97
2022-08-09T06:27:11.377Z,19.00
2022-08-09T06:28:15.796Z,19.05
2022-08-09T06:29:21.428Z,19.08
2022-08-09T06:30:24.640Z,19.13
2022-08-09T06:31:31.175Z,19.17
2022-08-09T06:32:59.971Z,19.19
2022-08-09T06:33:40.548Z,19.19
2022-08-09T06:34:42.384Z,19.21
2022-08-09T06:35:57.226Z,19.18
2022-08-09T06:36:59.060Z,19.11
2022-08-09T06:38:05.431Z,19.22
2022-08-09T06:39:02.460Z,19.33
2022-08-09T06:40:21.731Z,19.38
2022-08-09T06:41:18.693Z,19.43
2022-08-09T06:42:13.367Z,19.48
2022-08-09T06:43:17.813Z,19.53
2022-08-09T06:44:22.211Z,19.57
2022-08-09T06:46:08.031Z,19.57
2022-08-09T06:46:39.959Z,19.60
2022-08-09T06:47:39.824Z,19.56
2022-08-09T06:48:42.830Z,19.54
2022-08-09T06:49:52.332Z,19.55
2022-08-09T06:50:48.716Z,19.59
2022-08-09T06:51:53.118Z,19.61
2022-08-09T06:52:57.564Z,19.54
2022-08-09T06:54:02.008Z,19.36
2022-08-09T06:55:12.653Z,19.33
2022-08-09T06:56:10.934Z,19.39
2022-08-09T06:57:15.398Z,19.49
2022-08-09T06:58:40.880Z,19.57
2022-08-09T07:00:52.583Z,19.39
2022-08-09T07:00:54.117Z,19.45
2022-08-09T07:01:54.709Z,19.33
2022-08-09T07:02:37.720Z,19.39
2022-08-09T07:03:51.821Z,19.48
2022-08-09T07:04:46.396Z,19.51
2022-08-09T07:05:58.057Z,19.58
2022-08-09T07:07:00.127Z,19.55
2022-08-09T07:08:01.958Z,19.50
2022-08-09T07:09:04.169Z,19.72
2022-08-09T07:10:22.575Z,19.87
2022-08-09T07:11:13.059Z,20.06
2022-08-09T07:12:18.698Z,20.12
2022-08-09T07:13:29.271Z,20.09
2022-08-09T07:14:27.302Z,20.01
2022-08-09T07:16:35.356Z,19.93
2022-08-09T07:16:41.196Z,20.19
2022-08-09T07:17:52.653Z,20.31
2022-08-09T07:18:44.136Z,20.42
2022-08-09T07:19:50.755Z,20.35
2022-08-09T07:20:53.052Z,20.42
2022-08-09T07:21:59.138Z,20.53
2022-08-09T07:23:01.937Z,20.53
2022-08-09T07:24:06.424Z,20.62
2022-08-09T07:25:10.871Z,20.60
2022-08-09T07:26:15.330Z,20.53
2022-08-09T07:27:26.252Z,20.45
2022-08-09T07:28:26.201Z,20.35
2022-08-09T07:29:37.667Z,20.34
2022-08-09T07:30:33.262Z,20.35
2022-08-09T07:31:38.626Z,20.27
2022-08-09T07:32:41.965Z,20.18
2022-08-09T07:33:53.296Z,20.23
2022-08-09T07:34:52.252Z,20.30
2022-08-09T07:35:55.371Z,20.33
2022-08-09T07:37:02.615Z,20.28
2022-08-09T07:38:04.208Z,20.25
2022-08-09T07:39:11.913Z,20.21
2022-08-09T07:40:13.394Z,20.07
2022-08-09T07:41:17.742Z,19.88
2022-08-09T07:42:22.044Z,19.85
2022-08-09T07:43:29.016Z,19.91
2022-08-09T07:44:50.828Z,19.96
2022-08-09T07:45:39.449Z,20.03
2022-08-09T07:46:39.814Z,19.99
2022-08-09T07:48:00.474Z,19.68
2022-08-09T07:48:52.745Z,19.58
2022-08-09T07:50:08.097Z,19.74
2022-08-09T07:51:09.507Z,19.87
2022-08-09T07:52:17.075Z,19.93
2022-08-09T07:53:08.578Z,20.05
2022-08-09T07:54:14.128Z,20.10
2022-08-09T07:55:17.473Z,20.05
2022-08-09T07:56:26.892Z,20.00
2022-08-09T07:57:35.895Z,19.96
2022-08-09T07:58:30.767Z,20.09
2022-08-09T07:59:45.771Z,20.18
2022-08-09T08:00:58.837Z,20.22
2022-08-09T08:01:53.266Z,20.18
2022-08-09T08:02:48.633Z,20.02
2022-08-09T08:03:53.035Z,19.89
2022-08-09T08:04:57.445Z,19.93
2022-08-09T08:06:01.891Z,19.99
2022-08-09T08:07:09.612Z,19.96
2022-08-09T08:09:00.309Z,19.99
2022-08-09T08:09:34.534Z,19.95
2022-08-09T08:10:19.711Z,19.94
2022-08-09T08:12:10.283Z,20.01
2022-08-09T08:12:29.560Z,20.04
2022-08-09T08:13:45.101Z,20.06
2022-08-09T08:14:37.473Z,20.03
2022-08-09T08:15:41.944Z,19.89
2022-08-09T08:17:00.488Z,19.91
2022-08-09T08:17:54.106Z,19.93
2022-08-09T08:18:55.313Z,19.66
2022-08-09T08:19:59.783Z,19.71
2022-08-09T08:21:04.220Z,19.85
2022-08-09T08:22:08.662Z,19.98
2022-08-09T08:23:27.236Z,19.81
2022-08-09T08:24:39.850Z,19.93
2022-08-09T08:25:44.166Z,19.99
2022-08-09T08:26:54.738Z,19.96
2022-08-09T08:27:43.898Z,19.70
2022-08-09T08:28:48.333Z,19.74
2022-08-09T08:29:52.884Z,19.82
2022-08-09T08:30:57.200Z,19.77
2022-08-09T08:32:24.404Z,19.61
2022-08-09T08:33:22.908Z,19.88
2022-08-09T08:34:25.507Z,19.95
2022-08-09T08:35:37.105Z,20.06
2022-08-09T08:36:32.282Z,19.83
2022-08-09T08:37:40.761Z,20.00
2022-08-09T08:38:41.151Z,19.58
2022-08-09T08:39:45.706Z,19.59
2022-08-09T08:40:50.059Z,19.84
2022-08-09T08:41:54.503Z,19.80
2022-08-09T08:42:59.032Z,19.61
2022-08-09T08:44:03.743Z,19.63
2022-08-09T08:45:11.782Z,19.43
2022-08-09T08:46:32.287Z,19.19
2022-08-09T08:47:16.796Z,19.19
2022-08-09T08:48:21.289Z,19.22
2022-08-09T08:49:33.297Z,18.92
2022-08-09T08:50:30.193Z,19.12
2022-08-09T08:51:41.955Z,19.14
2022-08-09T08:52:59.882Z,19.16
2022-08-09T08:54:03.809Z,19.26
2022-08-09T08:54:48.036Z,19.15
2022-08-09T08:55:52.843Z,19.22
2022-08-09T08:56:56.928Z,19.01
2022-08-09T08:58:01.330Z,18.63
2022-08-09T08:59:18.742Z,18.54
2022-08-09T09:00:17.110Z,18.68
2022-08-09T09:01:20.884Z,18.53
2022-08-09T09:02:31.021Z,18.70
2022-08-09T09:03:32.946Z,18.60
2022-08-09T09:04:27.986Z,18.66
2022-08-09T09:05:57.930Z,18.61
2022-08-09T09:06:36.948Z,18.64
2022-08-09T09:07:42.768Z,18.51
2022-08-09T09:08:45.828Z,18.48
2022-08-09T09:10:01.962Z,18.55
2022-08-09T09:10:54.800Z,18.56
2022-08-09T09:11:59.191Z,18.33
2022-08-09T09:13:09.579Z,18.52
2022-08-09T09:14:08.054Z,18.69
2022-08-09T09:15:12.478Z,18.44
2022-08-09T09:16:16.940Z,18.33
2022-08-09T09:17:21.388Z,18.50
2022-08-09T09:18:25.858Z,18.30
2022-08-09T09:19:40.782Z,18.66
2022-08-09T09:20:34.753Z,18.95
2022-08-09T09:21:43.112Z,18.57
2022-08-09T09:22:43.703Z,18.73
2022-08-09T09:23:49.704Z,18.35
2022-08-09T09:24:54.558Z,18.19
2022-08-09T09:26:04.850Z,18.44
2022-08-09T09:27:01.546Z,18.37
2022-08-09T09:29:45.963Z,18.79
2022-08-09T09:30:40.921Z,18.69
2022-08-09T09:32:06.475Z,18.66
2022-08-09T09:32:46.451Z,18.71
2022-08-09T09:33:56.866Z,18.64
2022-08-09T09:34:55.356Z,18.61
2022-08-09T09:36:02.707Z,18.30
2022-08-09T09:37:04.222Z,18.43
2022-08-09T09:38:08.638Z,18.33
2022-08-09T09:39:13.119Z,18.26
2022-08-09T09:40:17.941Z,18.29
2022-08-09T09:41:22.061Z,18.22
2022-08-09T09:42:26.501Z,18.39
2022-08-09T09:43:30.908Z,18.52
2022-08-09T09:44:35.368Z,18.48
2022-08-09T09:45:57.017Z,18.44
2022-08-09T09:46:50.382Z,18.37
2022-08-09T09:47:58.655Z,18.39
2022-08-09T09:48:53.150Z,18.49
2022-08-09T09:50:14.755Z,18.29
2022-08-09T09:51:02.069Z,18.36
2022-08-09T09:52:33.236Z,18.20
2022-08-09T09:53:13.062Z,18.23
2022-08-09T09:54:20.371Z,18.44
2022-08-09T09:55:31.884Z,18.08
2022-08-09T09:56:31.573Z,17.97
2022-08-09T09:58:04.302Z,17.93
2022-08-09T09:58:35.262Z,18.06
2022-08-09T09:59:39.724Z,18.08
2022-08-09T10:00:44.166Z,18.11
2022-08-09T10:01:48.632Z,18.09
2022-08-09T10:02:53.056Z,18.01
2022-08-09T10:03:59.620Z,18.12
2022-08-09T10:05:01.934Z,18.11
2022-08-09T10:06:06.368Z,17.99
2022-08-09T10:07:10.853Z,18.04
2022-08-09T10:08:27.329Z,18.07
2022-08-09T10:09:22.627Z,18.12
2022-08-09T10:10:24.178Z,18.09
2022-08-09T10:11:54.002Z,18.17
2022-08-09T10:12:33.053Z,18.42
2022-08-09T10:13:43.157Z,18.05
2022-08-09T10:14:43.947Z,18.08
2022-08-09T10:16:09.635Z,18.30
2022-08-09T10:16:57.029Z,18.52
2022-08-09T10:17:57.422Z,18.52
2022-08-09T10:19:01.866Z,18.81
2022-08-09T10:20:06.299Z,18.96
2022-08-09T10:21:10.834Z,19.14
2022-08-09T10:22:15.244Z,19.28
2022-08-09T10:23:20.467Z,19.15
2022-08-09T10:24:31.381Z,19.29
2022-08-09T10:25:34.540Z,19.27
2022-08-09T10:26:33.239Z,19.07
2022-08-09T10:27:38.634Z,19.32
2022-08-09T10:28:44.118Z,19.47
2022-08-09T10:30:27.212Z,19.53
2022-08-09T10:32:59.941Z,19.49
2022-08-09T10:34:32.307Z,19.33
2022-08-09T10:35:09.687Z,19.45
2022-08-09T10:36:13.309Z,19.44
2022-08-09T10:37:17.766Z,19.40
2022-08-09T10:38:34.402Z,19.39
2022-08-09T10:39:28.367Z,19.41
2022-08-09T10:40:33.792Z,19.54
2022-08-09T10:41:35.622Z,19.57
2022-08-09T10:42:40.117Z,19.50
2022-08-09T10:43:50.661Z,19.49
2022-08-09T10:44:49.005Z,19.63
2022-08-09T10:46:00.126Z,19.65
2022-08-09T10:47:01.353Z,19.77
2022-08-09T10:48:22.598Z,19.82
2022-08-09T10:49:07.034Z,19.90
2022-08-09T10:50:14.774Z,19.96
2022-08-09T10:51:15.955Z,20.05
2022-08-09T10:52:20.737Z,20.03
2022-08-09T10:53:24.961Z,19.70
2022-08-09T10:54:35.375Z,19.15
2022-08-09T10:55:55.057Z,19.27
2022-08-09T10:56:42.978Z,19.47
2022-08-09T10:57:51.737Z,19.69
2022-08-09T10:58:51.870Z,19.69
2022-08-09T10:59:58.540Z,19.37
2022-08-09T11:03:13.337Z,19.35
2022-08-09T11:03:14.102Z,19.69
2022-08-09T11:03:50.529Z,19.39
2022-08-09T11:04:31.499Z,19.11
2022-08-09T11:05:31.619Z,18.98
2022-08-09T11:06:37.257Z,18.93
2022-08-09T11:07:56.808Z,19.01
2022-08-09T11:08:47.971Z,19.16
2022-08-09T11:09:49.327Z,19.15
2022-08-09T11:10:56.325Z,18.93
2022-08-09T11:11:58.188Z,19.03
2022-08-09T11:13:08.705Z,18.95
2022-08-09T11:14:11.798Z,19.09
2022-08-09T11:15:19.137Z,19.07
2022-08-09T11:16:35.009Z,19.12
2022-08-09T11:17:25.186Z,19.04
2022-08-09T11:18:29.614Z,19.06
2022-08-09T11:20:11.184Z,19.09
2022-08-09T11:20:38.502Z,19.01
2022-08-09T11:21:42.944Z,19.04
2022-08-09T11:22:55.625Z,19.02
2022-08-09T11:23:51.957Z,19.03
2022-08-09T11:24:56.334Z,18.94
2022-08-09T11:26:00.815Z,18.98
2022-08-09T11:27:06.638Z,18.94
2022-08-09T11:28:30.679Z,19.00
2022-08-09T11:30:04.656Z,18.85
2022-08-09T11:30:32.509Z,19.01
2022-08-09T11:31:36.827Z,19.05
2022-08-09T11:32:40.194Z,19.02
2022-08-09T11:33:44.665Z,19.19
2022-08-09T11:34:51.607Z,19.21
2022-08-09T11:35:53.628Z,19.30
2022-08-09T11:36:58.110Z,19.31
2022-08-09T11:38:02.571Z,19.40
2022-08-09T11:39:07.064Z,19.62
2022-08-09T11:40:27.499Z,19.72
2022-08-09T11:41:38.566Z,19.69
2022-08-09T11:42:33.649Z,19.73
2022-08-09T11:43:38.801Z,19.62
2022-08-09T11:44:42.286Z,19.74
2022-08-09T11:45:46.763Z,19.74
2022-08-09T11:46:51.345Z,19.75
2022-08-09T11:47:57.969Z,19.76
2022-08-09T11:49:00.213Z,19.69
2022-08-09T11:50:53.241Z,19.63
2022-08-09T11:52:56.409Z,19.60
2022-08-09T11:53:04.137Z,19.45
2022-08-09T11:53:59.695Z,19.45
2022-08-09T11:54:29.844Z,19.60
2022-08-09T11:55:52.751Z,19.56
2022-08-09T11:56:42.695Z,19.67
2022-08-09T11:58:00.733Z,19.70
2022-08-09T11:58:40.511Z,19.66
2022-08-09T11:59:44.974Z,19.54
2022-08-09T12:00:49.880Z,19.45
2022-08-09T12:02:18.215Z,19.52
2022-08-09T12:02:58.405Z,19.25
2022-08-09T12:04:02.948Z,19.34
2022-08-09T12:05:07.345Z,19.30
2022-08-09T12:06:11.718Z,19.34
2022-08-09T12:07:16.141Z,18.92
2022-08-09T12:08:21.939Z,19.07
2022-08-09T12:09:25.136Z,19.53
2022-08-09T12:10:38.219Z,19.76
2022-08-09T12:11:37.475Z,19.84
2022-08-09T12:12:38.525Z,19.55
2022-08-09T12:14:08.564Z,19.64
2022-08-09T12:15:07.375Z,19.45
2022-08-09T12:15:52.736Z,19.64
2022-08-09T12:16:56.482Z,19.83
2022-08-09T12:18:00.929Z,19.83
2022-08-09T12:19:05.400Z,19.62
2022-08-09T12:20:09.971Z,19.65
2022-08-09T12:21:28.504Z,19.71
2022-08-09T12:22:18.872Z,19.80
2022-08-09T12:23:24.768Z,19.60
2022-08-09T12:24:28.168Z,19.50
2022-08-09T12:25:37.129Z,19.70
2022-08-09T12:26:36.871Z,20.08
2022-08-09T12:28:58.460Z,20.66
2022-08-09T12:28:58.725Z,20.35
2022-08-09T12:29:54.029Z,20.41
2022-08-09T12:30:54.776Z,20.12
2022-08-09T12:32:03.257Z,20.19
2022-08-09T12:33:03.752Z,20.11
2022-08-09T12:34:08.341Z,20.16
2022-08-09T12:35:19.094Z,20.14
2022-08-09T12:36:31.334Z,20.35
2022-08-09T12:37:24.501Z,20.26
2022-08-09T12:38:29.839Z,20.36
2022-08-09T12:39:30.911Z,20.26
2022-08-09T12:40:35.353Z,20.37
2022-08-09T12:41:40.444Z,20.44
2022-08-09T12:42:44.399Z,20.28
2022-08-09T12:44:05.260Z,20.08
2022-08-09T12:44:54.562Z,19.93
2022-08-09T12:45:59.857Z,19.89
2022-08-09T12:47:02.321Z,19.89
2022-08-09T12:48:10.709Z,19.78
2022-08-09T12:49:11.333Z,19.75
2022-08-09T12:50:15.827Z,19.61
2022-08-09T12:51:52.645Z,19.55
2022-08-09T12:52:42.813Z,19.60
2022-08-09T12:53:35.237Z,19.70
2022-08-09T12:54:33.761Z,19.98
2022-08-09T12:56:14.539Z,19.93
2022-08-09T12:56:48.249Z,20.02
2022-08-09T12:57:47.233Z,19.80
2022-08-09T12:58:52.498Z,19.63
2022-08-09T13:00:02.923Z,19.90
2022-08-09T13:01:00.835Z,19.97
2022-08-09T13:02:05.195Z,20.11
2022-08-09T13:03:09.943Z,19.92
2022-08-09T13:04:35.975Z,20.14
2022-08-09T13:05:18.748Z,20.57
2022-08-09T13:06:23.201Z,20.51
2022-08-09T13:07:28.631Z,20.17
2022-08-09T13:08:40.506Z,20.28
2022-08-09T13:09:38.113Z,20.12
2022-08-09T13:10:41.271Z,19.78
2022-08-09T13:11:45.760Z,19.77
2022-08-09T13:13:10.834Z,19.71
2022-08-09T13:14:37.289Z,19.72
2022-08-09T13:14:59.356Z,19.87
2022-08-09T13:16:03.774Z,20.09
2022-08-09T13:17:08.812Z,20.10
2022-08-09T13:18:17.292Z,20.39
2022-08-09T13:19:17.352Z,20.20
2022-08-09T13:20:23.341Z,20.21
2022-08-09T13:22:37.086Z,20.25
2022-08-09T13:22:38.458Z,20.20
2022-08-09T13:24:17.158Z,20.06
2022-08-09T13:24:53.572Z,20.15
2022-08-09T13:25:55.065Z,20.10
2022-08-09T13:26:50.101Z,19.98
2022-08-09T13:27:59.515Z,20.00
2022-08-09T13:29:02.710Z,20.13
2022-08-09T13:30:51.162Z,20.05
2022-08-09T13:32:16.744Z,19.91
2022-08-09T13:32:26.516Z,19.70
2022-08-09T13:33:20.723Z,19.56
2022-08-09T13:34:25.215Z,19.51
2022-08-09T13:35:34.457Z,19.31
2022-08-09T13:36:48.230Z,18.94
2022-08-09T13:37:52.937Z,18.92
2022-08-09T13:38:59.855Z,18.95
2022-08-09T13:41:50.596Z,18.67
2022-08-09T13:41:54.073Z,18.70
2022-08-09T13:42:11.006Z,18.52
2022-08-09T13:43:15.958Z,18.52
2022-08-09T13:44:18.506Z,18.59
2022-08-09T13:45:31.856Z,18.73
2022-08-09T13:47:14.440Z,18.86
2022-08-09T13:47:49.575Z,18.89
2022-08-09T13:48:36.406Z,18.94
2022-08-09T13:49:57.374Z,18.96
2022-08-09T13:50:45.533Z,19.00
2022-08-09T13:52:00.568Z,19.18
2022-08-09T13:52:54.628Z,19.10
2022-08-09T13:53:59.094Z,19.17